sensor_id;sensor_type;location;lat;lon;timestamp;temperature;humidity
6375;DHT22;35400;45.472;-122.822;2022-10-16T00:01:20;28.40;45.50
6375;DHT22;35400;45.472;-122.822;2022-10-16T00:03:48;28.40;45.40
6375;DHT22;35400;45.472;-122.822;2022-10-16T00:06:17;28.30;45.80
6375;DHT22;35400;45.472;-122.822;2022-10-16T00:08:44;28.30;46.00
6375;DHT22;35400;45.472;-122.822;2022-10-16T00:11:15;28.20;45.90
6375;DHT22;35400;45.472;-122.822;2022-10-16T00:13:43;28.20;46.00
6375;DHT22;35400;45.472;-122.822;2022-10-16T00:16:12;28.10;46.10
6375;DHT22;35400;45.472;-122.822;2022-10-16T00:18:39;28.10;46.10
6375;DHT22;35400;45.472;-122.822;2022-10-16T00:21:09;28.00;46.20
6375;DHT22;35400;45.472;-122.822;2022-10-16T00:23:36;28.00;46.50
6375;DHT22;35400;45.472;-122.822;2022-10-16T00:26:07;28.00;46.60
6375;DHT22;35400;45.472;-122.822;2022-10-16T00:28:35;27.90;46.40
6375;DHT22;35400;45.472;-122.822;2022-10-16T00:31:07;27.80;46.40
6375;DHT22;35400;45.472;-122.822;2022-10-16T00:33:35;27.70;46.60
6375;DHT22;35400;45.472;-122.822;2022-10-16T00:36:03;27.60;46.70
6375;DHT22;35400;45.472;-122.822;2022-10-16T00:38:30;27.60;47.00
6375;DHT22;35400;45.472;-122.822;2022-10-16T00:40:57;27.50;46.80
6375;DHT22;35400;45.472;-122.822;2022-10-16T00:46:42;27.40;46.70
6375;DHT22;35400;45.472;-122.822;2022-10-16T00:49:15;27.30;47.10
6375;DHT22;35400;45.472;-122.822;2022-10-16T00:51:49;27.30;47.10
6375;DHT22;35400;45.472;-122.822;2022-10-16T00:54:29;27.20;47.30
6375;DHT22;35400;45.472;-122.822;2022-10-16T00:57:00;27.10;47.40
6375;DHT22;35400;45.472;-122.822;2022-10-16T00:59:29;27.00;47.00
6375;DHT22;35400;45.472;-122.822;2022-10-16T01:01:57;27.00;47.50
6375;DHT22;35400;45.472;-122.822;2022-10-16T01:04:25;26.90;47.60
6375;DHT22;35400;45.472;-122.822;2022-10-16T01:12:16;26.70;47.80
6375;DHT22;35400;45.472;-122.822;2022-10-16T01:15:10;26.60;47.70
6375;DHT22;35400;45.472;-122.822;2022-10-16T01:17:59;26.50;48.10
6375;DHT22;35400;45.472;-122.822;2022-10-16T01:20:30;26.50;48.10
6375;DHT22;35400;45.472;-122.822;2022-10-16T01:29:22;26.20;48.80
6375;DHT22;35400;45.472;-122.822;2022-10-16T01:31:56;26.10;49.00
6375;DHT22;35400;45.472;-122.822;2022-10-16T01:34:32;26.00;49.00
6375;DHT22;35400;45.472;-122.822;2022-10-16T01:37:13;26.00;49.20
6375;DHT22;35400;45.472;-122.822;2022-10-16T01:39:44;25.90;49.20
6375;DHT22;35400;45.472;-122.822;2022-10-16T01:42:22;25.90;49.20
6375;DHT22;35400;45.472;-122.822;2022-10-16T01:44:51;25.80;49.40
6375;DHT22;35400;45.472;-122.822;2022-10-16T01:47:22;25.80;49.70
6375;DHT22;35400;45.472;-122.822;2022-10-16T01:49:51;25.70;49.50
6375;DHT22;35400;45.472;-122.822;2022-10-16T01:52:21;25.70;49.80
6375;DHT22;35400;45.472;-122.822;2022-10-16T01:54:52;25.60;49.80
6375;DHT22;35400;45.472;-122.822;2022-10-16T01:57:21;25.60;49.60
6375;DHT22;35400;45.472;-122.822;2022-10-16T01:59:52;25.60;49.90
6375;DHT22;35400;45.472;-122.822;2022-10-16T02:02:21;25.60;50.40
6375;DHT22;35400;45.472;-122.822;2022-10-16T02:04:53;25.50;50.30
6375;DHT22;35400;45.472;-122.822;2022-10-16T02:07:21;25.40;50.30
6375;DHT22;35400;45.472;-122.822;2022-10-16T02:09:48;25.40;50.80
6375;DHT22;35400;45.472;-122.822;2022-10-16T02:12:46;25.30;51.10
6375;DHT22;35400;45.472;-122.822;2022-10-16T02:15:15;25.20;50.80
6375;DHT22;35400;45.472;-122.822;2022-10-16T02:17:41;25.20;50.80
6375;DHT22;35400;45.472;-122.822;2022-10-16T02:20:09;25.20;50.70
6375;DHT22;35400;45.472;-122.822;2022-10-16T02:22:45;25.20;51.10
6375;DHT22;35400;45.472;-122.822;2022-10-16T02:25:38;25.10;50.90
6375;DHT22;35400;45.472;-122.822;2022-10-16T02:28:16;25.10;51.20
6375;DHT22;35400;45.472;-122.822;2022-10-16T02:30:49;25.10;51.30
6375;DHT22;35400;45.472;-122.822;2022-10-16T02:33:18;25.00;51.40
6375;DHT22;35400;45.472;-122.822;2022-10-16T02:35:47;25.00;51.30
6375;DHT22;35400;45.472;-122.822;2022-10-16T02:38:17;25.00;51.10
6375;DHT22;35400;45.472;-122.822;2022-10-16T02:40:45;25.00;51.40
6375;DHT22;35400;45.472;-122.822;2022-10-16T02:43:12;25.00;52.10
6375;DHT22;35400;45.472;-122.822;2022-10-16T02:45:39;25.00;51.50
6375;DHT22;35400;45.472;-122.822;2022-10-16T02:48:06;25.00;51.40
6375;DHT22;35400;45.472;-122.822;2022-10-16T02:50:33;24.90;51.50
6375;DHT22;35400;45.472;-122.822;2022-10-16T02:53:00;24.90;51.90
6375;DHT22;35400;45.472;-122.822;2022-10-16T02:55:27;24.90;51.60
6375;DHT22;35400;45.472;-122.822;2022-10-16T02:57:54;24.80;51.80
6375;DHT22;35400;45.472;-122.822;2022-10-16T03:00:21;24.80;52.10
6375;DHT22;35400;45.472;-122.822;2022-10-16T03:02:48;24.80;52.40
6375;DHT22;35400;45.472;-122.822;2022-10-16T03:05:16;24.70;52.10
6375;DHT22;35400;45.472;-122.822;2022-10-16T03:07:43;24.60;52.40
6375;DHT22;35400;45.472;-122.822;2022-10-16T03:10:09;24.60;52.60
6375;DHT22;35400;45.472;-122.822;2022-10-16T03:12:36;24.50;52.60
6375;DHT22;35400;45.472;-122.822;2022-10-16T03:15:04;24.40;52.60
6375;DHT22;35400;45.472;-122.822;2022-10-16T03:17:32;24.40;52.90
6375;DHT22;35400;45.472;-122.822;2022-10-16T03:19:59;24.40;52.60
6375;DHT22;35400;45.472;-122.822;2022-10-16T03:22:25;24.30;52.30
6375;DHT22;35400;45.472;-122.822;2022-10-16T03:24:52;24.30;52.50
6375;DHT22;35400;45.472;-122.822;2022-10-16T03:27:19;24.30;52.70
6375;DHT22;35400;45.472;-122.822;2022-10-16T03:29:46;24.30;52.80
6375;DHT22;35400;45.472;-122.822;2022-10-16T03:32:13;24.30;53.80
6375;DHT22;35400;45.472;-122.822;2022-10-16T03:34:39;24.30;53.10
6375;DHT22;35400;45.472;-122.822;2022-10-16T03:37:07;24.20;52.90
6375;DHT22;35400;45.472;-122.822;2022-10-16T03:39:34;24.20;53.10
6375;DHT22;35400;45.472;-122.822;2022-10-16T03:42:00;24.20;53.40
6375;DHT22;35400;45.472;-122.822;2022-10-16T03:44:27;24.10;52.90
6375;DHT22;35400;45.472;-122.822;2022-10-16T03:46:54;24.10;53.00
6375;DHT22;35400;45.472;-122.822;2022-10-16T03:49:21;24.10;53.00
6375;DHT22;35400;45.472;-122.822;2022-10-16T03:51:48;24.10;52.90
6375;DHT22;35400;45.472;-122.822;2022-10-16T03:54:15;24.10;52.90
6375;DHT22;35400;45.472;-122.822;2022-10-16T03:56:41;24.20;53.20
6375;DHT22;35400;45.472;-122.822;2022-10-16T03:59:08;24.20;53.10
6375;DHT22;35400;45.472;-122.822;2022-10-16T04:01:35;24.30;53.00
6375;DHT22;35400;45.472;-122.822;2022-10-16T04:04:02;24.20;53.10
6375;DHT22;35400;45.472;-122.822;2022-10-16T04:06:29;24.30;53.30
6375;DHT22;35400;45.472;-122.822;2022-10-16T04:08:56;24.20;53.20
6375;DHT22;35400;45.472;-122.822;2022-10-16T04:11:23;24.20;53.50
6375;DHT22;35400;45.472;-122.822;2022-10-16T04:13:50;24.20;53.30
6375;DHT22;35400;45.472;-122.822;2022-10-16T04:16:17;24.10;53.00
6375;DHT22;35400;45.472;-122.822;2022-10-16T04:18:44;24.10;53.40
6375;DHT22;35400;45.472;-122.822;2022-10-16T04:21:11;24.10;53.60
6375;DHT22;35400;45.472;-122.822;2022-10-16T04:23:38;24.10;53.70
6375;DHT22;35400;45.472;-122.822;2022-10-16T04:26:05;24.00;54.00
6375;DHT22;35400;45.472;-122.822;2022-10-16T04:28:32;24.00;53.90
6375;DHT22;35400;45.472;-122.822;2022-10-16T04:30:59;23.90;53.80
6375;DHT22;35400;45.472;-122.822;2022-10-16T04:33:25;23.80;53.80
6375;DHT22;35400;45.472;-122.822;2022-10-16T04:36:00;23.80;54.10
6375;DHT22;35400;45.472;-122.822;2022-10-16T04:38:27;23.80;54.10
6375;DHT22;35400;45.472;-122.822;2022-10-16T04:40:54;23.80;54.40
6375;DHT22;35400;45.472;-122.822;2022-10-16T04:43:22;23.70;54.50
6375;DHT22;35400;45.472;-122.822;2022-10-16T04:45:49;23.70;54.80
6375;DHT22;35400;45.472;-122.822;2022-10-16T04:48:21;23.60;55.10
6375;DHT22;35400;45.472;-122.822;2022-10-16T04:50:47;23.50;55.30
6375;DHT22;35400;45.472;-122.822;2022-10-16T04:53:14;23.40;55.20
6375;DHT22;35400;45.472;-122.822;2022-10-16T04:55:43;23.40;55.60
6375;DHT22;35400;45.472;-122.822;2022-10-16T04:58:10;23.30;55.50
6375;DHT22;35400;45.472;-122.822;2022-10-16T05:00:37;23.20;56.00
6375;DHT22;35400;45.472;-122.822;2022-10-16T05:03:04;23.10;56.10
6375;DHT22;35400;45.472;-122.822;2022-10-16T05:05:35;23.00;56.20
6375;DHT22;35400;45.472;-122.822;2022-10-16T05:08:02;22.90;56.20
6375;DHT22;35400;45.472;-122.822;2022-10-16T05:10:29;22.90;56.50
6375;DHT22;35400;45.472;-122.822;2022-10-16T05:12:56;22.80;56.70
6375;DHT22;35400;45.472;-122.822;2022-10-16T05:15:23;22.70;56.40
6375;DHT22;35400;45.472;-122.822;2022-10-16T05:17:54;22.70;56.60
6375;DHT22;35400;45.472;-122.822;2022-10-16T05:20:22;22.60;56.80
6375;DHT22;35400;45.472;-122.822;2022-10-16T05:22:49;22.60;57.00
6375;DHT22;35400;45.472;-122.822;2022-10-16T05:25:17;22.50;57.10
6375;DHT22;35400;45.472;-122.822;2022-10-16T05:27:47;22.50;57.30
6375;DHT22;35400;45.472;-122.822;2022-10-16T05:30:17;22.40;57.60
6375;DHT22;35400;45.472;-122.822;2022-10-16T05:32:49;22.30;57.90
6375;DHT22;35400;45.472;-122.822;2022-10-16T05:35:17;22.20;58.40
6375;DHT22;35400;45.472;-122.822;2022-10-16T05:37:44;22.10;58.40
6375;DHT22;35400;45.472;-122.822;2022-10-16T05:40:11;22.00;58.50
6375;DHT22;35400;45.472;-122.822;2022-10-16T05:42:39;22.00;58.90
6375;DHT22;35400;45.472;-122.822;2022-10-16T05:45:08;21.90;58.70
6375;DHT22;35400;45.472;-122.822;2022-10-16T05:47:36;21.90;59.00
6375;DHT22;35400;45.472;-122.822;2022-10-16T05:50:03;21.90;59.20
6375;DHT22;35400;45.472;-122.822;2022-10-16T05:52:30;21.80;59.00
6375;DHT22;35400;45.472;-122.822;2022-10-16T05:54:57;21.80;59.00
6375;DHT22;35400;45.472;-122.822;2022-10-16T05:57:24;21.80;59.50
6375;DHT22;35400;45.472;-122.822;2022-10-16T05:59:51;21.80;58.90
6375;DHT22;35400;45.472;-122.822;2022-10-16T06:02:19;21.90;59.10
6375;DHT22;35400;45.472;-122.822;2022-10-16T06:04:46;21.90;59.10
6375;DHT22;35400;45.472;-122.822;2022-10-16T06:07:12;21.90;59.20
6375;DHT22;35400;45.472;-122.822;2022-10-16T06:09:39;21.90;59.20
6375;DHT22;35400;45.472;-122.822;2022-10-16T06:12:06;21.90;59.10
6375;DHT22;35400;45.472;-122.822;2022-10-16T06:14:33;21.90;59.90
6375;DHT22;35400;45.472;-122.822;2022-10-16T06:17:00;21.90;59.30
6375;DHT22;35400;45.472;-122.822;2022-10-16T06:19:27;22.00;59.20
6375;DHT22;35400;45.472;-122.822;2022-10-16T06:21:54;22.00;59.20
6375;DHT22;35400;45.472;-122.822;2022-10-16T06:24:20;22.00;59.40
6375;DHT22;35400;45.472;-122.822;2022-10-16T06:26:47;22.00;59.40
6375;DHT22;35400;45.472;-122.822;2022-10-16T06:29:14;22.00;59.50
6375;DHT22;35400;45.472;-122.822;2022-10-16T06:31:41;22.00;59.50
6375;DHT22;35400;45.472;-122.822;2022-10-16T06:34:11;22.00;59.40
6375;DHT22;35400;45.472;-122.822;2022-10-16T06:36:38;22.00;59.50
6375;DHT22;35400;45.472;-122.822;2022-10-16T06:39:05;22.00;59.50
6375;DHT22;35400;45.472;-122.822;2022-10-16T06:41:34;21.90;59.40
6375;DHT22;35400;45.472;-122.822;2022-10-16T06:44:14;21.90;59.50
6375;DHT22;35400;45.472;-122.822;2022-10-16T06:46:41;21.90;59.40
6375;DHT22;35400;45.472;-122.822;2022-10-16T06:49:08;21.90;59.50
6375;DHT22;35400;45.472;-122.822;2022-10-16T06:51:35;21.90;59.60
6375;DHT22;35400;45.472;-122.822;2022-10-16T06:54:06;21.90;59.70
6375;DHT22;35400;45.472;-122.822;2022-10-16T06:56:34;21.90;59.70
6375;DHT22;35400;45.472;-122.822;2022-10-16T06:59:02;21.90;59.80
6375;DHT22;35400;45.472;-122.822;2022-10-16T07:01:29;21.90;59.80
6375;DHT22;35400;45.472;-122.822;2022-10-16T07:03:56;21.80;59.80
6375;DHT22;35400;45.472;-122.822;2022-10-16T07:06:25;21.80;59.90
6375;DHT22;35400;45.472;-122.822;2022-10-16T07:08:52;21.80;59.90
6375;DHT22;35400;45.472;-122.822;2022-10-16T07:11:21;21.80;60.10
6375;DHT22;35400;45.472;-122.822;2022-10-16T07:13:49;21.80;60.00
6375;DHT22;35400;45.472;-122.822;2022-10-16T07:16:19;21.70;60.00
6375;DHT22;35400;45.472;-122.822;2022-10-16T07:18:46;21.70;60.10
6375;DHT22;35400;45.472;-122.822;2022-10-16T07:21:21;21.70;60.40
6375;DHT22;35400;45.472;-122.822;2022-10-16T07:23:53;21.70;60.20
6375;DHT22;35400;45.472;-122.822;2022-10-16T07:26:21;21.70;60.30
6375;DHT22;35400;45.472;-122.822;2022-10-16T07:28:47;21.70;60.30
6375;DHT22;35400;45.472;-122.822;2022-10-16T07:31:15;21.70;60.40
6375;DHT22;35400;45.472;-122.822;2022-10-16T07:33:44;21.70;60.50
6375;DHT22;35400;45.472;-122.822;2022-10-16T07:36:12;21.60;60.30
6375;DHT22;35400;45.472;-122.822;2022-10-16T07:38:39;21.60;60.40
6375;DHT22;35400;45.472;-122.822;2022-10-16T07:41:07;21.60;60.50
6375;DHT22;35400;45.472;-122.822;2022-10-16T07:43:35;21.60;60.50
6375;DHT22;35400;45.472;-122.822;2022-10-16T07:46:02;21.60;60.60
6375;DHT22;35400;45.472;-122.822;2022-10-16T07:48:31;21.50;60.40
6375;DHT22;35400;45.472;-122.822;2022-10-16T07:51:04;21.50;60.30
6375;DHT22;35400;45.472;-122.822;2022-10-16T07:53:32;21.50;60.50
6375;DHT22;35400;45.472;-122.822;2022-10-16T07:56:04;21.50;60.60
6375;DHT22;35400;45.472;-122.822;2022-10-16T07:58:32;21.40;60.60
6375;DHT22;35400;45.472;-122.822;2022-10-16T08:01:04;21.40;60.60
6375;DHT22;35400;45.472;-122.822;2022-10-16T08:03:31;21.40;60.80
6375;DHT22;35400;45.472;-122.822;2022-10-16T08:05:59;21.30;60.60
6375;DHT22;35400;45.472;-122.822;2022-10-16T08:08:26;21.30;60.60
6375;DHT22;35400;45.472;-122.822;2022-10-16T08:10:54;21.30;60.60
6375;DHT22;35400;45.472;-122.822;2022-10-16T08:13:20;21.30;60.50
6375;DHT22;35400;45.472;-122.822;2022-10-16T08:15:47;21.30;60.60
6375;DHT22;35400;45.472;-122.822;2022-10-16T08:18:15;21.30;60.60
6375;DHT22;35400;45.472;-122.822;2022-10-16T08:20:42;21.30;60.70
6375;DHT22;35400;45.472;-122.822;2022-10-16T08:23:11;21.20;60.70
6375;DHT22;35400;45.472;-122.822;2022-10-16T08:25:40;21.20;60.70
6375;DHT22;35400;45.472;-122.822;2022-10-16T08:28:08;21.20;60.80
6375;DHT22;35400;45.472;-122.822;2022-10-16T08:30:36;21.20;60.80
6375;DHT22;35400;45.472;-122.822;2022-10-16T08:33:03;21.10;60.80
6375;DHT22;35400;45.472;-122.822;2022-10-16T08:35:30;21.10;60.80
6375;DHT22;35400;45.472;-122.822;2022-10-16T08:37:56;21.10;61.00
6375;DHT22;35400;45.472;-122.822;2022-10-16T08:40:26;21.10;61.00
6375;DHT22;35400;45.472;-122.822;2022-10-16T08:43:01;21.00;61.00
6375;DHT22;35400;45.472;-122.822;2022-10-16T08:48:20;21.00;61.30
6375;DHT22;35400;45.472;-122.822;2022-10-16T08:50:51;20.90;61.30
6375;DHT22;35400;45.472;-122.822;2022-10-16T08:53:31;20.90;61.70
6375;DHT22;35400;45.472;-122.822;2022-10-16T08:56:02;20.80;61.60
6375;DHT22;35400;45.472;-122.822;2022-10-16T08:58:30;20.80;61.50
6375;DHT22;35400;45.472;-122.822;2022-10-16T09:01:00;20.70;61.50
6375;DHT22;35400;45.472;-122.822;2022-10-16T09:06:01;20.70;61.80
6375;DHT22;35400;45.472;-122.822;2022-10-16T09:08:46;20.60;61.80
6375;DHT22;35400;45.472;-122.822;2022-10-16T09:11:25;20.60;62.00
6375;DHT22;35400;45.472;-122.822;2022-10-16T09:16:46;20.50;62.40
6375;DHT22;35400;45.472;-122.822;2022-10-16T09:19:31;20.40;62.30
6375;DHT22;35400;45.472;-122.822;2022-10-16T09:22:09;20.40;62.80
6375;DHT22;35400;45.472;-122.822;2022-10-16T09:24:37;20.30;63.10
6375;DHT22;35400;45.472;-122.822;2022-10-16T09:27:04;20.20;63.30
6375;DHT22;35400;45.472;-122.822;2022-10-16T09:29:31;20.20;63.70
6375;DHT22;35400;45.472;-122.822;2022-10-16T09:32:12;20.10;63.90
6375;DHT22;35400;45.472;-122.822;2022-10-16T09:34:52;20.00;64.10
6375;DHT22;35400;45.472;-122.822;2022-10-16T09:37:22;19.90;64.70
6375;DHT22;35400;45.472;-122.822;2022-10-16T09:39:54;19.80;64.70
6375;DHT22;35400;45.472;-122.822;2022-10-16T09:44:53;19.70;65.00
6375;DHT22;35400;45.472;-122.822;2022-10-16T09:47:25;19.60;65.10
6375;DHT22;35400;45.472;-122.822;2022-10-16T09:50:00;19.60;65.60
6375;DHT22;35400;45.472;-122.822;2022-10-16T09:52:33;19.50;65.80
6375;DHT22;35400;45.472;-122.822;2022-10-16T09:55:03;19.40;66.00
6375;DHT22;35400;45.472;-122.822;2022-10-16T09:57:52;19.30;66.20
6375;DHT22;35400;45.472;-122.822;2022-10-16T10:00:20;19.20;66.30
6375;DHT22;35400;45.472;-122.822;2022-10-16T10:02:47;19.10;66.70
6375;DHT22;35400;45.472;-122.822;2022-10-16T10:05:32;19.10;67.10
6375;DHT22;35400;45.472;-122.822;2022-10-16T10:08:01;19.00;67.20
6375;DHT22;35400;45.472;-122.822;2022-10-16T10:10:34;18.90;67.50
6375;DHT22;35400;45.472;-122.822;2022-10-16T10:13:03;18.80;67.40
6375;DHT22;35400;45.472;-122.822;2022-10-16T10:15:34;18.80;67.60
6375;DHT22;35400;45.472;-122.822;2022-10-16T10:18:14;18.70;67.80
6375;DHT22;35400;45.472;-122.822;2022-10-16T10:20:42;18.70;68.00
6375;DHT22;35400;45.472;-122.822;2022-10-16T10:23:35;18.60;68.20
6375;DHT22;35400;45.472;-122.822;2022-10-16T10:26:06;18.60;68.40
6375;DHT22;35400;45.472;-122.822;2022-10-16T10:29:31;18.50;68.70
6375;DHT22;35400;45.472;-122.822;2022-10-16T10:35:04;18.40;69.00
6375;DHT22;35400;45.472;-122.822;2022-10-16T10:40:43;18.30;69.50
6375;DHT22;35400;45.472;-122.822;2022-10-16T10:43:21;18.20;69.70
6375;DHT22;35400;45.472;-122.822;2022-10-16T10:45:58;18.10;70.10
6375;DHT22;35400;45.472;-122.822;2022-10-16T10:48:42;18.00;70.20
6375;DHT22;35400;45.472;-122.822;2022-10-16T10:51:33;18.00;70.30
6375;DHT22;35400;45.472;-122.822;2022-10-16T10:54:31;17.90;70.40
6375;DHT22;35400;45.472;-122.822;2022-10-16T10:57:14;17.90;70.70
6375;DHT22;35400;45.472;-122.822;2022-10-16T11:00:00;17.80;71.00
6375;DHT22;35400;45.472;-122.822;2022-10-16T11:05:44;17.70;71.40
6375;DHT22;35400;45.472;-122.822;2022-10-16T11:13:46;17.60;72.00
6375;DHT22;35400;45.472;-122.822;2022-10-16T11:19:03;17.50;72.00
6375;DHT22;35400;45.472;-122.822;2022-10-16T11:21:39;17.40;72.40
6375;DHT22;35400;45.472;-122.822;2022-10-16T11:24:39;17.40;72.40
6375;DHT22;35400;45.472;-122.822;2022-10-16T11:27:14;17.40;72.30
6375;DHT22;35400;45.472;-122.822;2022-10-16T11:29:55;17.40;72.00
6375;DHT22;35400;45.472;-122.822;2022-10-16T11:32:40;17.40;72.00
6375;DHT22;35400;45.472;-122.822;2022-10-16T11:35:17;17.40;72.20
6375;DHT22;35400;45.472;-122.822;2022-10-16T11:37:47;17.40;72.50
6375;DHT22;35400;45.472;-122.822;2022-10-16T11:40:33;17.40;72.20
6375;DHT22;35400;45.472;-122.822;2022-10-16T11:45:48;17.50;71.50
6375;DHT22;35400;45.472;-122.822;2022-10-16T11:48:30;17.50;70.90
6375;DHT22;35400;45.472;-122.822;2022-10-16T11:54:16;17.70;70.50
6375;DHT22;35400;45.472;-122.822;2022-10-16T11:56:46;17.80;70.40
6375;DHT22;35400;45.472;-122.822;2022-10-16T11:59:33;17.90;69.70
6375;DHT22;35400;45.472;-122.822;2022-10-16T12:07:57;18.20;69.60
6375;DHT22;35400;45.472;-122.822;2022-10-16T12:10:29;18.20;69.40
6375;DHT22;35400;45.472;-122.822;2022-10-16T12:13:04;18.20;69.20
6375;DHT22;35400;45.472;-122.822;2022-10-16T12:15:33;18.20;69.30
6375;DHT22;35400;45.472;-122.822;2022-10-16T12:18:00;18.20;70.10
6375;DHT22;35400;45.472;-122.822;2022-10-16T12:20:32;18.20;69.80
6375;DHT22;35400;45.472;-122.822;2022-10-16T12:23:03;18.20;70.20
6375;DHT22;35400;45.472;-122.822;2022-10-16T12:25:38;18.20;70.10
6375;DHT22;35400;45.472;-122.822;2022-10-16T12:30:43;18.10;69.90
6375;DHT22;35400;45.472;-122.822;2022-10-16T12:33:29;18.10;69.70
6375;DHT22;35400;45.472;-122.822;2022-10-16T12:35:59;18.10;69.90
6375;DHT22;35400;45.472;-122.822;2022-10-16T12:38:50;18.10;70.00
6375;DHT22;35400;45.472;-122.822;2022-10-16T12:41:32;18.10;70.10
6375;DHT22;35400;45.472;-122.822;2022-10-16T12:44:00;18.10;70.00
6375;DHT22;35400;45.472;-122.822;2022-10-16T12:51:43;18.10;70.30
6375;DHT22;35400;45.472;-122.822;2022-10-16T12:54:34;18.10;70.20
6375;DHT22;35400;45.472;-122.822;2022-10-16T13:00:08;18.00;70.10
6375;DHT22;35400;45.472;-122.822;2022-10-16T13:13:56;18.00;70.30
6375;DHT22;35400;45.472;-122.822;2022-10-16T13:21:59;18.10;69.20
6375;DHT22;35400;45.472;-122.822;2022-10-16T13:30:16;18.40;68.80
6375;DHT22;35400;45.472;-122.822;2022-10-16T13:32:49;18.40;68.50
6375;DHT22;35400;45.472;-122.822;2022-10-16T13:35:23;18.50;68.30
6375;DHT22;35400;45.472;-122.822;2022-10-16T13:37:50;18.60;68.10
6375;DHT22;35400;45.472;-122.822;2022-10-16T13:40:22;18.60;68.10
6375;DHT22;35400;45.472;-122.822;2022-10-16T13:42:53;18.60;68.00
6375;DHT22;35400;45.472;-122.822;2022-10-16T13:45:23;18.60;67.80
6375;DHT22;35400;45.472;-122.822;2022-10-16T13:48:03;18.60;67.80
6375;DHT22;35400;45.472;-122.822;2022-10-16T13:50:30;18.60;67.80
6375;DHT22;35400;45.472;-122.822;2022-10-16T13:53:07;18.60;68.10
6375;DHT22;35400;45.472;-122.822;2022-10-16T13:55:39;18.60;68.00
6375;DHT22;35400;45.472;-122.822;2022-10-16T13:58:08;18.60;68.10
6375;DHT22;35400;45.472;-122.822;2022-10-16T14:00:35;18.60;68.30
6375;DHT22;35400;45.472;-122.822;2022-10-16T14:03:05;18.60;68.00
6375;DHT22;35400;45.472;-122.822;2022-10-16T14:05:33;18.60;67.70
6375;DHT22;35400;45.472;-122.822;2022-10-16T14:08:01;18.60;67.70
6375;DHT22;35400;45.472;-122.822;2022-10-16T14:10:30;18.60;67.80
6375;DHT22;35400;45.472;-122.822;2022-10-16T14:13:05;18.60;67.90
6375;DHT22;35400;45.472;-122.822;2022-10-16T14:15:36;18.50;67.80
6375;DHT22;35400;45.472;-122.822;2022-10-16T14:18:03;18.50;67.80
6375;DHT22;35400;45.472;-122.822;2022-10-16T14:20:32;18.50;68.10
6375;DHT22;35400;45.472;-122.822;2022-10-16T14:23:02;18.50;68.30
6375;DHT22;35400;45.472;-122.822;2022-10-16T14:25:31;18.50;68.10
6375;DHT22;35400;45.472;-122.822;2022-10-16T14:28:00;18.40;67.90
6375;DHT22;35400;45.472;-122.822;2022-10-16T14:30:29;18.40;68.10
6375;DHT22;35400;45.472;-122.822;2022-10-16T14:33:03;18.40;68.10
6375;DHT22;35400;45.472;-122.822;2022-10-16T14:38:00;18.40;67.60
6375;DHT22;35400;45.472;-122.822;2022-10-16T14:40:30;18.40;68.10
6375;DHT22;35400;45.472;-122.822;2022-10-16T14:42:58;18.50;67.50
6375;DHT22;35400;45.472;-122.822;2022-10-16T14:45:28;18.50;67.50
6375;DHT22;35400;45.472;-122.822;2022-10-16T14:48:14;18.60;67.30
6375;DHT22;35400;45.472;-122.822;2022-10-16T14:50:43;18.70;66.50
6375;DHT22;35400;45.472;-122.822;2022-10-16T14:53:12;18.80;66.10
6375;DHT22;35400;45.472;-122.822;2022-10-16T14:55:41;19.00;65.90
6375;DHT22;35400;45.472;-122.822;2022-10-16T14:58:22;19.10;65.50
6375;DHT22;35400;45.472;-122.822;2022-10-16T15:00:49;19.30;65.30
6375;DHT22;35400;45.472;-122.822;2022-10-16T15:03:16;19.30;65.40
6375;DHT22;35400;45.472;-122.822;2022-10-16T15:05:43;19.50;65.50
6375;DHT22;35400;45.472;-122.822;2022-10-16T15:08:10;19.50;65.00
6375;DHT22;35400;45.472;-122.822;2022-10-16T15:10:41;19.60;64.50
6375;DHT22;35400;45.472;-122.822;2022-10-16T15:13:14;19.70;64.10
6375;DHT22;35400;45.472;-122.822;2022-10-16T15:15:45;19.90;64.10
6375;DHT22;35400;45.472;-122.822;2022-10-16T15:18:13;20.00;63.50
6375;DHT22;35400;45.472;-122.822;2022-10-16T15:20:48;20.10;63.60
6375;DHT22;35400;45.472;-122.822;2022-10-16T15:23:20;20.30;63.10
6375;DHT22;35400;45.472;-122.822;2022-10-16T15:25:51;20.40;62.60
6375;DHT22;35400;45.472;-122.822;2022-10-16T15:28:19;20.50;62.20
6375;DHT22;35400;45.472;-122.822;2022-10-16T15:30:48;20.70;62.00
6375;DHT22;35400;45.472;-122.822;2022-10-16T15:33:18;20.90;61.50
6375;DHT22;35400;45.472;-122.822;2022-10-16T15:35:50;21.00;61.10
6375;DHT22;35400;45.472;-122.822;2022-10-16T15:38:18;21.10;61.10
6375;DHT22;35400;45.472;-122.822;2022-10-16T15:40:46;21.20;61.30
6375;DHT22;35400;45.472;-122.822;2022-10-16T15:43:13;21.30;61.50
6375;DHT22;35400;45.472;-122.822;2022-10-16T15:45:40;21.40;61.90
6375;DHT22;35400;45.472;-122.822;2022-10-16T15:48:13;21.40;62.00
6375;DHT22;35400;45.472;-122.822;2022-10-16T15:50:40;21.50;61.60
6375;DHT22;35400;45.472;-122.822;2022-10-16T15:53:08;21.60;62.10
6375;DHT22;35400;45.472;-122.822;2022-10-16T15:55:35;21.70;62.60
6375;DHT22;35400;45.472;-122.822;2022-10-16T15:58:04;21.70;60.00
6375;DHT22;35400;45.472;-122.822;2022-10-16T16:00:31;21.80;60.20
6375;DHT22;35400;45.472;-122.822;2022-10-16T16:02:58;21.90;60.60
6375;DHT22;35400;45.472;-122.822;2022-10-16T16:05:25;22.00;59.60
6375;DHT22;35400;45.472;-122.822;2022-10-16T16:07:53;22.10;59.80
6375;DHT22;35400;45.472;-122.822;2022-10-16T16:10:20;22.20;59.90
6375;DHT22;35400;45.472;-122.822;2022-10-16T16:12:48;22.20;59.70
6375;DHT22;35400;45.472;-122.822;2022-10-16T16:15:20;22.30;59.40
6375;DHT22;35400;45.472;-122.822;2022-10-16T16:17:48;22.30;59.30
6375;DHT22;35400;45.472;-122.822;2022-10-16T16:20:15;22.50;58.80
6375;DHT22;35400;45.472;-122.822;2022-10-16T16:22:42;22.60;58.70
6375;DHT22;35400;45.472;-122.822;2022-10-16T16:25:09;22.70;58.30
6375;DHT22;35400;45.472;-122.822;2022-10-16T16:27:36;22.90;58.70
6375;DHT22;35400;45.472;-122.822;2022-10-16T16:30:06;23.00;57.40
6375;DHT22;35400;45.472;-122.822;2022-10-16T16:32:34;23.20;57.40
6375;DHT22;35400;45.472;-122.822;2022-10-16T16:35:02;23.40;57.10
6375;DHT22;35400;45.472;-122.822;2022-10-16T16:37:29;23.50;56.70
6375;DHT22;35400;45.472;-122.822;2022-10-16T16:39:56;23.50;56.30
6375;DHT22;35400;45.472;-122.822;2022-10-16T16:42:27;23.60;56.50
6375;DHT22;35400;45.472;-122.822;2022-10-16T16:44:54;23.70;57.40
6375;DHT22;35400;45.472;-122.822;2022-10-16T16:47:21;23.70;56.60
6375;DHT22;35400;45.472;-122.822;2022-10-16T16:49:48;23.70;56.10
6375;DHT22;35400;45.472;-122.822;2022-10-16T16:52:16;23.80;56.20
6375;DHT22;35400;45.472;-122.822;2022-10-16T16:54:43;23.80;56.00